createdAt,value
2018-03-03T00:00:46.258Z,22.73
2018-03-03T00:03:14.673Z,24.35
2018-03-03T00:05:43.126Z,23.17
2018-03-03T00:08:11.564Z,22.27
2018-03-03T00:10:40.000Z,25.37
2018-03-03T00:13:08.488Z,22.65
2018-03-03T00:15:36.940Z,23.40
2018-03-03T00:18:05.377Z,24.33
2018-03-03T00:20:33.851Z,24.63
2018-03-03T00:23:02.263Z,23.80
2018-03-03T00:25:30.694Z,25.33
2018-03-03T00:27:59.172Z,26.77
2018-03-03T00:30:27.599Z,25.48
2018-03-03T00:32:56.017Z,23.42
2018-03-03T00:35:24.486Z,24.23
2018-03-03T00:37:52.917Z,24.67
2018-03-03T00:40:21.340Z,25.05
2018-03-03T00:42:49.795Z,23.33
2018-03-03T00:45:18.215Z,24.87
2018-03-03T00:47:46.629Z,24.30
2018-03-03T00:50:15.109Z,25.83
2018-03-03T00:52:43.545Z,24.05
2018-03-03T00:55:11.960Z,23.02
2018-03-03T00:57:40.441Z,23.98
2018-03-03T01:00:08.855Z,23.70
2018-03-03T01:02:37.281Z,24.23
2018-03-03T01:05:05.762Z,24.80
2018-03-03T01:07:34.214Z,24.15
2018-03-03T01:10:02.630Z,24.80
2018-03-03T01:12:31.101Z,25.12
2018-03-03T01:14:59.527Z,25.30
2018-03-03T01:17:27.959Z,23.98
2018-03-03T01:19:56.431Z,24.77
2018-03-03T01:22:24.870Z,22.48
2018-03-03T01:24:53.294Z,23.92
2018-03-03T01:27:21.755Z,24.25
2018-03-03T01:29:50.184Z,21.60
2018-03-03T01:32:18.611Z,22.30
2018-03-03T01:34:47.094Z,22.65
2018-03-03T01:37:15.528Z,22.65
2018-03-03T01:39:43.956Z,21.60
2018-03-03T01:42:12.425Z,22.58
2018-03-03T01:44:40.855Z,20.33
2018-03-03T01:47:09.299Z,18.48
2018-03-03T01:49:37.775Z,23.83
2018-03-03T01:52:06.194Z,22.23
2018-03-03T01:54:34.628Z,22.08
2018-03-03T01:57:03.094Z,23.48
2018-03-03T01:59:31.510Z,21.25
2018-03-03T02:01:59.936Z,21.37
2018-03-03T02:04:28.394Z,23.25
2018-03-03T02:06:56.805Z,22.08
2018-03-03T02:09:25.222Z,23.98
2018-03-03T02:11:53.670Z,23.15
2018-03-03T02:14:22.101Z,23.17
2018-03-03T02:16:50.537Z,22.70
2018-03-03T02:19:19.016Z,20.75
2018-03-03T02:21:47.442Z,19.55
2018-03-03T02:24:15.878Z,20.08
2018-03-03T02:26:44.364Z,19.70
2018-03-03T02:29:12.802Z,20.00
2018-03-03T02:31:41.234Z,15.50
2018-03-03T02:34:09.694Z,20.00
2018-03-03T02:36:38.140Z,16.83
2018-03-03T02:39:06.585Z,17.90
2018-03-03T02:41:35.061Z,21.85
2018-03-03T02:44:03.518Z,15.80
2018-03-03T02:46:31.939Z,18.50
2018-03-03T02:49:00.390Z,11.05
2018-03-03T02:51:28.855Z,18.12
2018-03-03T02:53:57.279Z,15.40
2018-03-03T02:56:25.930Z,19.40
2018-03-03T02:58:54.366Z,18.73
2018-03-03T03:01:22.779Z,15.10
2018-03-03T03:03:51.245Z,15.52
2018-03-03T03:06:19.680Z,14.60
2018-03-03T03:08:48.112Z,13.93
2018-03-03T03:11:16.567Z,17.95
2018-03-03T03:13:45.002Z,15.52
2018-03-03T03:16:13.418Z,20.08
2018-03-03T03:18:41.870Z,19.35
2018-03-03T03:21:10.290Z,21.90
2018-03-03T03:23:38.737Z,20.85
2018-03-03T03:26:07.207Z,20.90
2018-03-03T03:28:35.626Z,20.88
2018-03-03T03:31:04.068Z,17.70
2018-03-03T03:33:32.542Z,18.50
2018-03-03T03:36:00.969Z,20.65
2018-03-03T03:38:29.400Z,20.17
2018-03-03T03:40:57.880Z,15.70
2018-03-03T03:43:26.316Z,15.30
2018-03-03T03:45:54.752Z,18.80
2018-03-03T03:48:23.240Z,18.50
2018-03-03T03:50:51.655Z,19.40
2018-03-03T03:53:20.066Z,14.35
2018-03-03T03:55:48.537Z,15.98
2018-03-03T03:58:16.968Z,16.17
2018-03-03T04:00:45.386Z,16.27
2018-03-03T04:03:13.870Z,9.40
2018-03-03T04:05:42.295Z,14.70
2018-03-03T04:08:10.728Z,17.00
2018-03-03T04:10:39.235Z,17.62
2018-03-03T04:13:07.672Z,11.12
2018-03-03T04:15:36.111Z,21.12
2018-03-03T04:18:04.570Z,14.13
2018-03-03T04:20:33.015Z,17.27
2018-03-03T04:23:01.449Z,15.95
2018-03-03T04:25:29.946Z,10.43
2018-03-03T04:27:58.392Z,19.05
2018-03-03T04:30:26.837Z,14.82
2018-03-03T04:32:55.322Z,17.77
2018-03-03T04:35:23.757Z,18.40
2018-03-03T04:37:52.209Z,13.73
2018-03-03T04:40:20.847Z,17.85
2018-03-03T04:42:49.277Z,18.00
2018-03-03T04:45:17.708Z,12.80
2018-03-03T04:47:46.197Z,16.55
2018-03-03T04:50:14.647Z,17.90
2018-03-03T04:52:43.091Z,20.88
2018-03-03T04:55:11.570Z,17.50
2018-03-03T04:57:40.002Z,18.87
2018-03-03T05:00:14.005Z,16.25
2018-03-03T05:02:47.939Z,12.60
2018-03-03T05:05:18.275Z,13.77
2018-03-03T05:07:55.200Z,17.00
2018-03-03T05:10:26.036Z,16.10
2018-03-03T05:12:55.284Z,10.43
2018-03-03T05:15:29.382Z,20.05
2018-03-03T05:18:03.436Z,15.63
2018-03-03T05:20:34.485Z,20.88
2018-03-03T05:23:08.330Z,11.45
2018-03-03T05:25:42.777Z,19.92
2018-03-03T05:31:22.602Z,20.10
2018-03-03T05:36:59.475Z,14.63
2018-03-03T05:39:33.502Z,17.67
2018-03-03T05:45:13.289Z,13.65
2018-03-03T05:47:49.209Z,19.30
2018-03-03T05:53:34.385Z,21.83
2018-03-03T05:56:11.153Z,13.45
2018-03-03T05:58:45.358Z,19.92
2018-03-03T06:01:20.401Z,12.98
2018-03-03T06:03:59.759Z,19.95
2018-03-03T06:09:33.392Z,19.35
2018-03-03T06:12:01.837Z,17.25
2018-03-03T06:14:30.277Z,21.27
2018-03-03T06:16:58.749Z,18.77
2018-03-03T06:19:27.192Z,19.40
2018-03-03T06:21:55.658Z,18.60
2018-03-03T06:24:24.134Z,19.95
2018-03-03T06:26:52.567Z,21.55
2018-03-03T06:29:20.998Z,19.23
2018-03-03T06:31:49.465Z,16.60
2018-03-03T06:34:17.897Z,24.27
2018-03-03T06:36:46.317Z,21.65
2018-03-03T06:39:14.782Z,18.10
2018-03-03T06:41:43.215Z,19.98
2018-03-03T06:44:11.627Z,18.70
2018-03-03T06:46:40.097Z,20.60
2018-03-03T06:49:08.515Z,18.40
2018-03-03T06:51:36.946Z,25.67
2018-03-03T06:54:05.433Z,17.45
2018-03-03T06:56:33.867Z,19.23
2018-03-03T06:59:02.301Z,15.27
2018-03-03T07:01:30.771Z,23.75
2018-03-03T07:03:59.206Z,20.92
2018-03-03T07:06:27.649Z,19.27
2018-03-03T07:08:56.129Z,20.52
2018-03-03T07:11:24.570Z,23.02
2018-03-03T07:13:53.037Z,20.40
2018-03-03T07:16:21.512Z,11.80
2018-03-03T07:18:49.923Z,21.65
2018-03-03T07:21:18.409Z,20.58
2018-03-03T07:23:46.902Z,17.67
2018-03-03T07:26:15.333Z,17.87
2018-03-03T07:28:43.767Z,15.13
2018-03-03T07:31:12.241Z,12.85
2018-03-03T07:33:40.673Z,19.00
2018-03-03T07:36:09.128Z,19.65
2018-03-03T07:38:37.602Z,17.85
2018-03-03T07:41:06.023Z,13.07
2018-03-03T07:43:34.457Z,14.15
2018-03-03T07:46:02.922Z,17.25
2018-03-03T07:48:31.364Z,12.82
2018-03-03T07:50:59.828Z,15.95
2018-03-03T07:53:28.318Z,13.73
2018-03-03T07:55:56.752Z,13.93
2018-03-03T08:01:26.153Z,19.95
2018-03-03T08:03:54.651Z,28.92
2018-03-03T08:06:23.072Z,27.92
2018-03-03T08:08:51.502Z,23.27
2018-03-03T08:11:19.974Z,31.25
2018-03-03T08:13:48.408Z,34.38
2018-03-03T08:16:16.849Z,45.28
2018-03-03T08:18:45.317Z,40.40
2018-03-03T08:21:13.813Z,26.55
2018-03-03T08:23:42.234Z,23.25
2018-03-03T08:26:10.705Z,29.70
2018-03-03T08:28:39.140Z,34.08
2018-03-03T08:31:07.600Z,23.77
2018-03-03T08:33:36.107Z,37.25
2018-03-03T08:36:04.534Z,37.38
2018-03-03T08:38:32.958Z,18.40
2018-03-03T08:41:01.423Z,17.98
2018-03-03T08:43:29.851Z,29.02
2018-03-03T08:45:58.278Z,39.10
2018-03-03T08:48:26.753Z,36.03
2018-03-03T08:50:55.193Z,28.35
2018-03-03T08:53:23.615Z,21.98
2018-03-03T08:55:52.075Z,24.87
2018-03-03T08:58:20.501Z,28.73
2018-03-03T09:00:48.937Z,35.00
2018-03-03T09:03:17.426Z,36.15
2018-03-03T09:05:45.838Z,33.00
2018-03-03T09:08:14.270Z,24.35
2018-03-03T09:10:42.778Z,41.75
2018-03-03T09:13:11.261Z,44.65
2018-03-03T09:15:39.694Z,33.25
2018-03-03T09:18:08.167Z,31.85
2018-03-03T09:20:36.611Z,23.08
2018-03-03T09:23:05.048Z,43.70
2018-03-03T09:25:33.523Z,40.50
2018-03-03T09:28:01.961Z,40.97
2018-03-03T09:30:30.412Z,30.75
2018-03-03T09:32:58.893Z,19.65
2018-03-03T09:35:27.330Z,30.88
2018-03-03T09:37:55.782Z,32.75
2018-03-03T09:40:24.248Z,32.60
2018-03-03T09:42:52.694Z,31.00
2018-03-03T09:45:21.138Z,23.60
2018-03-03T09:47:49.632Z,32.60
2018-03-03T09:50:18.080Z,27.70
2018-03-03T09:52:46.535Z,26.48
2018-03-03T09:55:15.033Z,19.85
2018-03-03T09:57:43.462Z,27.40
2018-03-03T10:00:11.971Z,27.98
2018-03-03T10:02:40.469Z,28.55
2018-03-03T10:05:08.898Z,27.10
2018-03-03T10:07:37.337Z,22.05
2018-03-03T10:10:05.832Z,21.83
2018-03-03T10:12:34.262Z,24.35
2018-03-03T10:15:02.751Z,26.67
2018-03-03T10:17:31.433Z,26.27
2018-03-03T10:19:59.873Z,20.98
2018-03-03T10:22:28.311Z,20.05
2018-03-03T10:24:56.779Z,26.23
2018-03-03T10:27:25.225Z,26.83
2018-03-03T10:29:53.668Z,19.85
2018-03-03T10:32:22.155Z,23.75
2018-03-03T10:34:50.590Z,26.95
2018-03-03T10:37:19.040Z,22.97
2018-03-03T10:39:47.614Z,27.13
2018-03-03T10:42:15.999Z,25.83
2018-03-03T10:44:44.426Z,29.03
2018-03-03T10:47:12.909Z,27.63
2018-03-03T10:49:41.383Z,19.03
2018-03-03T10:52:09.817Z,19.77
2018-03-03T10:54:38.292Z,21.80
2018-03-03T10:57:06.718Z,28.37
2018-03-03T10:59:35.142Z,38.65
2018-03-03T11:02:03.607Z,34.43
2018-03-03T11:04:32.023Z,31.70
2018-03-03T11:07:00.455Z,23.00
2018-03-03T11:09:28.958Z,26.53
2018-03-03T11:11:57.373Z,28.47
2018-03-03T11:14:25.817Z,27.97
2018-03-03T11:16:54.467Z,25.83
2018-03-03T11:19:22.912Z,30.77
2018-03-03T11:21:51.337Z,26.80
2018-03-03T11:24:19.793Z,31.87
2018-03-03T11:26:48.225Z,31.87
2018-03-03T11:29:16.664Z,25.97
2018-03-03T11:31:45.138Z,32.53
2018-03-03T11:34:13.562Z,31.37
2018-03-03T11:36:41.996Z,27.93
2018-03-03T11:39:10.485Z,32.63
2018-03-03T11:41:38.910Z,24.90
2018-03-03T11:44:07.341Z,33.07
2018-03-03T11:46:35.838Z,32.53
2018-03-03T11:49:04.295Z,26.23
2018-03-03T11:51:32.739Z,29.47
2018-03-03T11:54:01.203Z,32.57
2018-03-03T11:56:29.635Z,29.60
2018-03-03T11:58:58.066Z,27.90
2018-03-03T12:01:26.539Z,32.67
2018-03-03T12:03:54.966Z,33.03
2018-03-03T12:06:23.384Z,31.03
2018-03-03T12:08:51.875Z,31.87
2018-03-03T12:11:20.329Z,34.20
2018-03-03T12:13:48.785Z,32.13
2018-03-03T12:16:17.310Z,33.57
2018-03-03T12:18:45.757Z,31.43
2018-03-03T12:21:14.185Z,31.90
2018-03-03T12:23:42.646Z,33.37
2018-03-03T12:26:11.088Z,32.57
2018-03-03T12:28:39.541Z,32.63
2018-03-03T12:31:08.006Z,32.27
2018-03-03T12:33:36.425Z,28.20
2018-03-03T12:36:04.851Z,33.13
2018-03-03T12:38:33.337Z,31.20
2018-03-03T12:41:01.776Z,32.13
2018-03-03T12:43:30.212Z,31.97
2018-03-03T12:45:58.683Z,35.00
2018-03-03T12:48:27.130Z,27.13
2018-03-03T12:50:55.570Z,32.93
2018-03-03T12:53:24.051Z,33.50
2018-03-03T12:55:52.478Z,33.33
2018-03-03T12:58:20.918Z,29.23
2018-03-03T13:00:49.386Z,29.90
2018-03-03T13:03:17.819Z,30.87
2018-03-03T13:05:46.253Z,30.50
2018-03-03T13:08:14.749Z,32.43
2018-03-03T13:10:43.172Z,31.67
2018-03-03T13:13:11.598Z,33.50
2018-03-03T13:15:40.062Z,30.70
2018-03-03T13:18:08.486Z,30.43
2018-03-03T13:20:36.922Z,29.47
2018-03-03T13:23:05.398Z,30.97
2018-03-03T13:25:33.834Z,31.60
2018-03-03T13:28:02.281Z,31.63
2018-03-03T13:30:30.755Z,31.50
2018-03-03T13:32:59.188Z,28.07
2018-03-03T13:35:27.619Z,28.43
2018-03-03T13:37:56.082Z,28.47
2018-03-03T13:40:24.534Z,25.40
2018-03-03T13:42:52.977Z,28.83
2018-03-03T13:45:21.456Z,26.23
2018-03-03T13:47:49.882Z,27.73
2018-03-03T13:50:18.322Z,28.97
2018-03-03T13:52:46.784Z,26.77
2018-03-03T13:55:15.214Z,27.80
2018-03-03T13:57:43.642Z,32.97
2018-03-03T14:00:12.118Z,31.37
2018-03-03T14:02:40.548Z,25.30
2018-03-03T14:05:09.016Z,26.47
2018-03-03T14:07:37.488Z,28.40
2018-03-03T14:10:05.946Z,30.43
2018-03-03T14:12:34.389Z,25.37
2018-03-03T14:15:02.854Z,22.00
2018-03-03T14:17:31.308Z,23.33
2018-03-03T14:19:59.757Z,26.30
2018-03-03T14:22:28.223Z,27.93
2018-03-03T14:24:56.684Z,24.53
2018-03-03T14:27:25.136Z,28.30
2018-03-03T14:29:53.850Z,28.33
2018-03-03T14:32:22.279Z,30.27
2018-03-03T14:34:50.719Z,23.20
2018-03-03T14:37:19.186Z,26.77
2018-03-03T14:39:47.612Z,27.80
2018-03-03T14:42:16.038Z,23.07
2018-03-03T14:44:44.525Z,20.07
2018-03-03T14:47:12.947Z,25.00
2018-03-03T14:49:41.377Z,25.93
2018-03-03T14:52:09.910Z,27.93
2018-03-03T14:54:38.334Z,24.17
2018-03-03T14:57:06.753Z,22.63
2018-03-03T14:59:35.244Z,26.27
2018-03-03T15:02:03.667Z,25.73
2018-03-03T15:04:32.103Z,27.33
2018-03-03T15:07:00.574Z,25.57
2018-03-03T15:09:29.007Z,24.33
2018-03-03T15:11:57.435Z,23.87
2018-03-03T15:14:25.891Z,30.67
2018-03-03T15:16:54.329Z,26.30
2018-03-03T15:19:22.750Z,28.27
2018-03-03T15:21:51.202Z,22.50
2018-03-03T15:24:19.618Z,19.87
2018-03-03T15:26:48.052Z,25.33
2018-03-03T15:29:16.539Z,27.83
2018-03-03T15:31:44.969Z,19.70
2018-03-03T15:34:13.419Z,24.83
2018-03-03T15:36:41.916Z,21.63
2018-03-03T15:39:10.349Z,21.80
2018-03-03T15:41:38.779Z,20.77
2018-03-03T15:44:07.242Z,22.43
2018-03-03T15:46:35.671Z,21.23
2018-03-03T15:49:04.086Z,13.87
2018-03-03T15:51:32.574Z,18.10
2018-03-03T15:54:01.016Z,21.10
2018-03-03T15:56:29.462Z,18.30
2018-03-03T15:58:57.951Z,14.87
2018-03-03T16:01:27.354Z,18.37
2018-03-03T16:03:55.803Z,18.97
2018-03-03T16:06:24.300Z,12.57
2018-03-03T16:08:52.746Z,19.37
2018-03-03T16:11:21.189Z,17.70
2018-03-03T16:13:49.682Z,20.60
2018-03-03T16:16:18.125Z,17.53
2018-03-03T16:18:46.556Z,17.67
2018-03-03T16:21:15.041Z,17.83
2018-03-03T16:23:43.485Z,16.03
2018-03-03T16:26:12.290Z,17.33
2018-03-03T16:28:40.793Z,18.23
2018-03-03T16:31:09.235Z,17.97
2018-03-03T16:33:37.844Z,15.87
2018-03-03T16:36:06.345Z,15.90
2018-03-03T16:38:34.782Z,14.43
2018-03-03T16:41:03.234Z,13.53
2018-03-03T16:43:31.734Z,15.07
2018-03-03T16:46:00.189Z,14.67
2018-03-03T16:48:28.632Z,15.60
2018-03-03T16:50:57.095Z,15.83
2018-03-03T16:53:25.511Z,14.63
2018-03-03T16:55:53.944Z,14.60
2018-03-03T16:58:22.411Z,13.93
2018-03-03T17:00:50.831Z,14.97
2018-03-03T17:03:19.276Z,15.43
2018-03-03T17:05:47.763Z,15.70
2018-03-03T17:08:16.200Z,15.23
2018-03-03T17:10:44.634Z,16.03
2018-03-03T17:13:13.098Z,14.10
2018-03-03T17:15:41.538Z,17.17
2018-03-03T17:18:09.972Z,16.10
2018-03-03T17:20:38.444Z,17.63
2018-03-03T17:23:06.867Z,17.77
2018-03-03T17:25:35.313Z,16.90
2018-03-03T17:28:03.779Z,17.83
2018-03-03T17:30:32.205Z,15.90
2018-03-03T17:33:00.645Z,16.17
2018-03-03T17:35:29.108Z,18.53
2018-03-03T17:37:57.532Z,16.70
2018-03-03T17:40:25.966Z,19.77
2018-03-03T17:42:54.447Z,19.47
2018-03-03T17:45:22.889Z,17.70
2018-03-03T17:47:51.329Z,17.47
2018-03-03T17:50:19.802Z,19.00
2018-03-03T17:52:48.242Z,19.10
2018-03-03T17:55:16.698Z,18.43
2018-03-03T17:57:45.178Z,17.33
2018-03-03T18:00:13.598Z,21.63
2018-03-03T18:02:42.050Z,19.43
2018-03-03T18:05:10.542Z,21.13
2018-03-03T18:07:38.955Z,25.83
2018-03-03T18:10:07.393Z,26.17
2018-03-03T18:12:35.914Z,30.37
2018-03-03T18:15:04.358Z,26.43
2018-03-03T18:17:32.799Z,31.60
2018-03-03T18:20:01.263Z,31.17
2018-03-03T18:22:29.669Z,23.70
2018-03-03T18:24:58.089Z,36.13
2018-03-03T18:27:26.566Z,28.93
2018-03-03T18:29:55.029Z,35.60
2018-03-03T18:32:23.464Z,36.23
2018-03-03T18:34:51.935Z,30.50
2018-03-03T18:37:20.347Z,27.63
2018-03-03T18:39:48.777Z,18.20
2018-03-03T18:42:17.234Z,20.17
2018-03-03T18:44:45.651Z,30.87
2018-03-03T18:47:14.062Z,21.77
2018-03-03T18:49:42.541Z,18.33
2018-03-03T18:52:10.970Z,22.07
2018-03-03T18:54:39.381Z,17.03
2018-03-03T18:57:07.855Z,21.10
2018-03-03T18:59:36.275Z,25.67
2018-03-03T19:02:04.728Z,18.87
2018-03-03T19:04:33.210Z,17.70
2018-03-03T19:07:01.647Z,23.07
2018-03-03T19:09:30.085Z,18.67
2018-03-03T19:11:58.716Z,19.53
2018-03-03T19:14:27.154Z,16.87
2018-03-03T19:16:55.642Z,14.90
2018-03-03T19:19:24.105Z,18.70
2018-03-03T19:21:52.533Z,18.63
2018-03-03T19:24:20.946Z,19.30
2018-03-03T19:26:49.439Z,17.83
2018-03-03T19:29:17.861Z,21.60
2018-03-03T19:31:46.274Z,16.97
2018-03-03T19:34:14.732Z,17.67
2018-03-03T19:36:43.153Z,18.07
2018-03-03T19:39:11.584Z,18.57
2018-03-03T19:41:40.088Z,18.50
2018-03-03T19:44:08.514Z,19.30
2018-03-03T19:46:36.956Z,18.83
2018-03-03T19:49:05.423Z,18.77
2018-03-03T19:51:33.838Z,20.10
2018-03-03T19:54:02.259Z,19.90
2018-03-03T19:56:30.740Z,19.83
2018-03-03T19:58:59.178Z,19.13
2018-03-03T20:01:27.593Z,21.43
2018-03-03T20:03:56.114Z,19.67
2018-03-03T20:06:24.543Z,20.80
2018-03-03T20:08:52.970Z,20.23
2018-03-03T20:11:21.444Z,23.10
2018-03-03T20:13:49.877Z,22.63
2018-03-03T20:16:18.286Z,23.00
2018-03-03T20:18:46.773Z,19.33
2018-03-03T20:21:15.213Z,20.30
2018-03-03T20:23:43.649Z,19.47
2018-03-03T20:26:12.121Z,20.77
2018-03-03T20:28:40.543Z,20.13
2018-03-03T20:31:08.981Z,20.77
2018-03-03T20:33:37.446Z,18.23
2018-03-03T20:36:05.868Z,19.30
2018-03-03T20:38:34.300Z,21.40
2018-03-03T20:41:02.781Z,22.17
2018-03-03T20:43:31.210Z,17.90
2018-03-03T20:45:59.630Z,21.23
2018-03-03T20:48:28.096Z,21.87
2018-03-03T20:50:56.533Z,21.90
2018-03-03T20:53:24.981Z,19.80
2018-03-03T20:55:53.510Z,22.80
2018-03-03T20:58:21.951Z,21.67
2018-03-03T21:00:50.529Z,22.73
2018-03-03T21:03:19.026Z,20.00
2018-03-03T21:05:47.487Z,18.63
2018-03-03T21:08:15.907Z,20.67
2018-03-03T21:10:44.381Z,19.90
2018-03-03T21:13:12.842Z,20.90
2018-03-03T21:15:41.277Z,19.43
2018-03-03T21:18:09.748Z,21.13
2018-03-03T21:20:38.184Z,20.50
2018-03-03T21:23:06.602Z,20.73
2018-03-03T21:25:35.081Z,20.60
2018-03-03T21:28:03.500Z,21.50
2018-03-03T21:30:31.919Z,19.77
2018-03-03T21:33:00.392Z,21.47
2018-03-03T21:35:28.825Z,19.40
2018-03-03T21:37:57.253Z,18.27
2018-03-03T21:40:25.715Z,21.73
2018-03-03T21:42:54.136Z,21.47
2018-03-03T21:45:22.550Z,20.90
2018-03-03T21:47:51.020Z,20.80
2018-03-03T21:50:19.467Z,20.20
2018-03-03T21:52:47.903Z,18.93
2018-03-03T21:55:16.367Z,19.43
2018-03-03T21:57:44.783Z,20.67
2018-03-03T22:00:13.239Z,21.10
2018-03-03T22:02:41.771Z,20.87
2018-03-03T22:05:10.216Z,21.33
2018-03-03T22:07:38.662Z,21.60
2018-03-03T22:10:07.254Z,21.50
2018-03-03T22:12:35.653Z,21.30
2018-03-03T22:15:04.176Z,20.53
2018-03-03T22:17:33.601Z,20.93
2018-03-03T22:20:02.043Z,20.40
2018-03-03T22:22:30.488Z,21.17
2018-03-03T22:24:58.990Z,20.67
2018-03-03T22:27:27.422Z,21.47
2018-03-03T22:29:55.858Z,20.27
2018-03-03T22:32:24.329Z,21.77
2018-03-03T22:34:52.758Z,20.03
2018-03-03T22:37:21.194Z,21.07
2018-03-03T22:39:49.673Z,19.07
2018-03-03T22:42:19.223Z,20.93
2018-03-03T22:44:47.671Z,21.50
2018-03-03T22:47:16.156Z,21.77
2018-03-03T22:49:44.589Z,21.27
2018-03-03T22:52:13.045Z,19.40
2018-03-03T22:54:41.513Z,21.67
2018-03-03T22:57:09.939Z,23.23
2018-03-03T22:59:38.380Z,21.40
2018-03-03T23:02:06.874Z,21.93
2018-03-03T23:04:35.298Z,20.73
2018-03-03T23:07:03.715Z,22.23
2018-03-03T23:09:32.179Z,22.23
2018-03-03T23:12:00.619Z,22.00
2018-03-03T23:14:29.057Z,21.23
2018-03-03T23:16:57.541Z,21.10
2018-03-03T23:19:25.996Z,22.93
2018-03-03T23:21:54.437Z,21.90
2018-03-03T23:24:22.917Z,22.00
2018-03-03T23:26:51.365Z,22.87
2018-03-03T23:29:19.798Z,22.27
2018-03-03T23:31:48.257Z,23.13
2018-03-03T23:34:16.690Z,24.10
2018-03-03T23:36:45.111Z,22.93
2018-03-03T23:39:13.600Z,23.47
2018-03-03T23:41:42.049Z,23.80
2018-03-03T23:44:10.478Z,21.60
2018-03-03T23:46:38.953Z,21.80
2018-03-03T23:49:07.374Z,22.67
2018-03-03T23:51:35.804Z,22.63
2018-03-03T23:54:04.632Z,21.63
2018-03-03T23:56:33.061Z,22.57
2018-03-03T23:59:01.478Z,22.13
